Time;durP1;ratioP1;P1;durP2;ratioP2;P2;SDS_P1;SDS_P2;PMS_P1;PMS_P2;Temp;Humidity;BMP_temperature;BMP_pressure;BME280_temperature;BME280_humidity;BME280_pressure;Samples;Min_cycle;Max_cycle;Signal;HPM_P1;HPM_P2
2023/10/22 00:00:01;;;;;;;6.15;1.27;;;13.00;99.90;;;;;;5029128;28;20454;-88
2023/10/22 00:02:26;;;;;;;4.95;1.33;;;13.00;99.90;;;;;;5028199;28;20033;-87
2023/10/22 00:04:53;;;;;;;3.00;1.45;;;12.90;99.90;;;;;;5029565;28;20045;-87
2023/10/22 00:07:18;;;;;;;2.67;0.85;;;12.90;99.90;;;;;;5046991;28;20494;-89
2023/10/22 00:09:44;;;;;;;3.65;1.02;;;12.90;99.90;;;;;;5046139;28;20052;-86
2023/10/22 00:12:11;;;;;;;2.90;1.00;;;12.90;99.90;;;;;;5047111;28;20041;-87
2023/10/22 00:14:37;;;;;;;4.38;1.15;;;12.90;99.90;;;;;;5028891;28;20088;-87
2023/10/22 00:17:03;;;;;;;3.95;1.00;;;12.90;99.90;;;;;;5047263;28;20188;-86
2023/10/22 00:19:29;;;;;;;2.05;0.93;;;12.90;99.90;;;;;;5013310;28;20575;-88
2023/10/22 00:21:54;;;;;;;4.82;1.27;;;13.00;99.90;;;;;;5029194;28;20060;-87
2023/10/22 00:24:20;;;;;;;5.63;1.40;;;13.00;99.90;;;;;;5046873;28;20060;-87
2023/10/22 00:26:46;;;;;;;3.05;1.00;;;13.00;99.90;;;;;;5028227;28;20044;-87
2023/10/22 00:29:12;;;;;;;3.30;1.40;;;13.00;99.90;;;;;;5031081;28;20045;-87
2023/10/22 00:31:37;;;;;;;2.95;1.00;;;13.00;99.90;;;;;;5050167;28;20052;-87
2023/10/22 00:34:03;;;;;;;4.22;1.10;;;13.10;99.90;;;;;;5050440;28;20041;-86
2023/10/22 00:36:31;;;;;;;3.97;1.30;;;13.00;99.90;;;;;;5050272;28;20494;-86
2023/10/22 00:38:56;;;;;;;3.95;1.20;;;13.10;99.90;;;;;;5016231;28;20048;-88
2023/10/22 00:41:22;;;;;;;2.28;0.82;;;13.00;99.90;;;;;;5015810;28;20411;-86
2023/10/22 00:43:47;;;;;;;3.10;1.38;;;13.00;99.90;;;;;;5049825;28;20824;-88
2023/10/22 00:46:22;;;;;;;3.63;1.00;;;13.60;99.90;;;;;;5012554;28;20045;-87
2023/10/22 00:48:48;;;;;;;3.22;1.00;;;13.00;99.90;;;;;;5026706;28;20081;-87
2023/10/22 00:51:14;;;;;;;4.95;1.02;;;12.90;99.90;;;;;;5016372;28;20147;-87
2023/10/22 00:53:45;;;;;;;4.75;1.50;;;12.90;99.90;;;;;;5031810;28;20049;-87
2023/10/22 00:56:11;;;;;;;2.13;0.90;;;12.90;99.90;;;;;;5003320;28;20111;-87
2023/10/22 00:58:37;;;;;;;2.75;0.93;;;13.20;99.90;;;;;;5024279;28;20525;-87
2023/10/22 01:01:07;;;;;;;2.67;0.88;;;12.90;99.90;;;;;;5031302;28;20044;-87
2023/10/22 01:03:34;;;;;;;1.95;1.33;;;12.90;99.90;;;;;;5032564;28;20048;-86
2023/10/22 01:06:02;;;;;;;3.75;1.15;;;12.90;99.90;;;;;;5011898;28;20050;-87
2023/10/22 01:08:29;;;;;;;2.60;1.17;;;12.90;99.90;;;;;;5015110;28;20128;-87
2023/10/22 01:11:10;;;;;;;3.03;1.00;;;12.90;99.90;;;;;;5049915;28;20064;-87
2023/10/22 01:13:37;;;;;;;4.13;1.20;;;12.90;99.90;;;;;;5031336;28;20120;-87
2023/10/22 01:16:03;;;;;;;4.60;1.02;;;12.80;99.90;;;;;;5029928;28;20045;-86
2023/10/22 01:18:29;;;;;;;2.30;1.35;;;12.80;99.90;;;;;;5050249;28;20098;-87
2023/10/22 01:20:54;;;;;;;3.75;1.50;;;12.80;99.90;;;;;;5030272;28;20474;-87
2023/10/22 01:23:22;;;;;;;3.13;1.40;;;12.80;99.90;;;;;;5031413;28;20142;-87
2023/10/22 01:25:48;;;;;;;2.40;1.13;;;12.70;99.90;;;;;;5031187;28;20143;-88
2023/10/22 01:28:14;;;;;;;3.28;1.25;;;12.70;99.90;;;;;;5049425;28;20070;-88
2023/10/22 01:30:40;;;;;;;3.92;1.10;;;12.70;99.90;;;;;;5015052;28;20076;-88
2023/10/22 01:33:06;;;;;;;5.15;1.58;;;12.60;99.90;;;;;;5048104;28;20057;-87
2023/10/22 01:35:32;;;;;;;1.75;0.98;;;12.60;99.90;;;;;;5032315;28;20095;-87
2023/10/22 01:37:58;;;;;;;1.70;0.98;;;12.60;99.90;;;;;;5030986;28;20471;-87
2023/10/22 01:40:24;;;;;;;2.15;0.98;;;12.60;99.90;;;;;;5031422;28;20049;-87
2023/10/22 01:42:50;;;;;;;3.58;1.17;;;12.60;99.90;;;;;;5030008;28;20107;-87
2023/10/22 01:45:16;;;;;;;2.58;0.90;;;12.60;99.90;;;;;;5015316;28;20057;-88
2023/10/22 01:47:41;;;;;;;3.05;1.02;;;12.60;99.90;;;;;;5029706;28;20572;-87
2023/10/22 01:50:08;;;;;;;2.38;1.10;;;12.60;99.90;;;;;;5029858;28;20049;-87
2023/10/22 01:52:34;;;;;;;2.75;1.00;;;12.50;99.90;;;;;;5030836;28;20570;-88
2023/10/22 01:55:00;;;;;;;3.65;1.08;;;12.40;99.90;;;;;;5030560;28;20156;-87
2023/10/22 01:57:25;;;;;;;3.58;1.10;;;12.30;99.90;;;;;;5048374;28;20060;-86
2023/10/22 01:59:51;;;;;;;3.70;1.20;;;12.50;99.90;;;;;;5014596;28;20041;-87
2023/10/22 02:02:17;;;;;;;2.53;1.13;;;12.20;99.90;;;;;;5029805;28;20040;-87
2023/10/22 02:04:43;;;;;;;3.88;1.30;;;12.10;99.90;;;;;;5015344;28;20091;-86
2023/10/22 02:07:09;;;;;;;3.50;1.70;;;12.10;99.90;;;;;;5029819;28;20419;-87
2023/10/22 02:09:34;;;;;;;3.72;1.27;;;12.00;99.90;;;;;;5030505;28;20045;-86
2023/10/22 02:12:00;;;;;;;2.13;1.40;;;12.00;99.90;;;;;;5012766;28;20047;-87
2023/10/22 02:14:26;;;;;;;5.82;1.52;;;12.40;99.90;;;;;;5030071;28;20057;-86
2023/10/22 02:16:52;;;;;;;2.65;1.48;;;12.00;99.90;;;;;;5030381;28;20048;-87
2023/10/22 02:19:18;;;;;;;3.65;1.50;;;11.80;99.90;;;;;;5014920;28;20047;-87
2023/10/22 02:21:44;;;;;;;5.75;1.50;;;12.30;99.90;;;;;;5008831;28;20103;-87
2023/10/22 02:24:10;;;;;;;5.28;1.40;;;12.00;99.90;;;;;;5027426;28;20144;-86
2023/10/22 02:26:35;;;;;;;2.97;1.50;;;11.70;99.90;;;;;;5047019;28;20147;-85
2023/10/22 02:29:01;;;;;;;4.10;1.63;;;11.70;99.90;;;;;;5013102;28;20147;-85
2023/10/22 02:31:27;;;;;;;4.53;1.58;;;11.70;99.90;;;;;;5029622;28;20032;-86
2023/10/22 02:34:03;;;;;;;3.47;1.50;;;11.70;99.90;;;;;;5029621;28;20439;-86
2023/10/22 02:36:29;;;;;;;2.83;1.45;;;11.70;99.90;;;;;;5026684;28;20106;-87
2023/10/22 02:38:56;;;;;;;2.92;1.52;;;11.60;99.90;;;;;;5029985;28;20041;-87
2023/10/22 02:41:22;;;;;;;3.15;1.60;;;12.10;99.90;;;;;;5029050;28;20492;-86
2023/10/22 02:43:47;;;;;;;7.03;1.60;;;11.60;99.90;;;;;;5047023;28;20522;-86
2023/10/22 02:46:15;;;;;;;6.03;1.30;;;12.00;99.90;;;;;;5029729;28;20037;-85
2023/10/22 02:48:41;;;;;;;5.05;1.38;;;11.60;99.90;;;;;;5029501;28;20384;-87
2023/10/22 02:51:07;;;;;;;3.10;1.52;;;12.10;99.90;;;;;;5029224;28;20132;-86
2023/10/22 02:53:32;;;;;;;3.53;1.23;;;11.70;99.90;;;;;;5030222;28;20052;-86
2023/10/22 02:56:02;;;;;;;3.72;1.48;;;11.70;99.90;;;;;;5046607;28;20513;-87
2023/10/22 02:58:30;;;;;;;4.00;1.48;;;11.60;99.90;;;;;;5046798;28;20133;-86
2023/10/22 03:01:03;;;;;;;1.90;1.13;;;12.00;99.90;;;;;;5029286;28;20057;-87
2023/10/22 03:03:29;;;;;;;3.63;1.25;;;11.70;99.90;;;;;;5030065;28;20087;-87
2023/10/22 03:05:58;;;;;;;4.18;1.30;;;11.90;99.90;;;;;;5029308;28;20084;-87
2023/10/22 03:08:23;;;;;;;2.33;1.23;;;11.70;99.90;;;;;;5005399;28;20041;-87
2023/10/22 03:10:49;;;;;;;4.13;1.20;;;11.80;99.90;;;;;;5047929;28;20438;-87
2023/10/22 03:13:15;;;;;;;3.88;1.00;;;11.70;99.90;;;;;;5028621;28;20359;-87
2023/10/22 03:15:40;;;;;;;3.47;1.23;;;11.70;99.90;;;;;;5028957;28;20085;-87
2023/10/22 03:18:07;;;;;;;1.10;1.00;;;11.70;99.90;;;;;;5009002;28;20053;-87
2023/10/22 03:20:33;;;;;;;2.00;1.17;;;11.80;99.90;;;;;;5018333;28;20060;-87
2023/10/22 03:23:01;;;;;;;4.30;1.40;;;11.80;99.90;;;;;;5028338;28;20585;-87
2023/10/22 03:25:27;;;;;;;2.10;1.30;;;11.80;99.90;;;;;;5030378;28;20054;-87
2023/10/22 03:27:53;;;;;;;2.85;1.30;;;11.80;99.90;;;;;;5028790;28;20403;-86
2023/10/22 03:30:18;;;;;;;2.92;1.38;;;11.80;99.90;;;;;;5011827;28;20812;-87
2023/10/22 03:32:44;;;;;;;2.95;1.33;;;11.80;99.90;;;;;;5029267;28;20052;-87
2023/10/22 03:35:11;;;;;;;2.95;1.55;;;11.90;99.90;;;;;;5025924;28;20356;-87
2023/10/22 03:37:36;;;;;;;3.20;1.35;;;11.90;99.90;;;;;;5011527;28;20051;-87
2023/10/22 03:40:04;;;;;;;3.92;1.40;;;11.90;99.90;;;;;;5046455;28;20145;-87
2023/10/22 03:42:30;;;;;;;2.88;1.20;;;11.90;99.90;;;;;;5027969;28;20542;-87
2023/10/22 03:44:55;;;;;;;2.88;1.33;;;12.60;99.90;;;;;;5029272;28;20055;-87
2023/10/22 03:47:21;;;;;;;3.42;1.30;;;11.90;99.90;;;;;;5011842;28;20128;-86
2023/10/22 03:49:47;;;;;;;2.80;1.33;;;11.80;99.90;;;;;;5013305;28;20136;-87
2023/10/22 03:52:12;;;;;;;4.50;1.70;;;11.80;99.90;;;;;;5023540;28;20049;-86
2023/10/22 03:54:38;;;;;;;2.95;1.60;;;11.80;99.90;;;;;;5044913;28;20041;-87
2023/10/22 03:57:04;;;;;;;4.32;1.83;;;11.80;99.90;;;;;;5043236;28;20045;-86
2023/10/22 03:59:29;;;;;;;4.70;1.60;;;11.80;99.90;;;;;;5029643;28;20409;-86
2023/10/22 04:01:55;;;;;;;2.97;1.42;;;11.90;99.90;;;;;;5027073;28;20850;-87
2023/10/22 04:04:22;;;;;;;2.63;1.40;;;11.80;99.90;;;;;;5025725;28;20508;-86
2023/10/22 04:06:48;;;;;;;1.50;1.40;;;11.80;99.90;;;;;;5049827;28;20090;-87
2023/10/22 04:09:13;;;;;;;3.70;1.63;;;11.80;99.90;;;;;;5033225;28;20041;-87
2023/10/22 04:11:42;;;;;;;2.05;1.50;;;11.80;99.90;;;;;;5030845;28;20049;-87
2023/10/22 04:14:07;;;;;;;2.63;1.45;;;11.80;99.90;;;;;;5001659;28;20048;-86
2023/10/22 04:16:33;;;;;;;2.15;1.40;;;11.80;99.90;;;;;;5031875;28;20052;-86
2023/10/22 04:18:58;;;;;;;2.72;1.45;;;11.90;99.90;;;;;;5050635;28;20448;-86
2023/10/22 04:21:24;;;;;;;1.95;1.52;;;11.70;99.90;;;;;;5029421;28;20045;-86
2023/10/22 04:23:50;;;;;;;1.67;1.30;;;11.70;99.90;;;;;;5028943;28;20051;-87
2023/10/22 04:26:16;;;;;;;2.75;1.77;;;11.70;99.90;;;;;;5029209;28;20030;-86
2023/10/22 04:28:46;;;;;;;2.67;1.45;;;11.70;99.90;;;;;;5011714;28;20111;-86
2023/10/22 04:31:11;;;;;;;3.47;1.70;;;12.40;99.90;;;;;;5013220;28;20045;-87
2023/10/22 04:33:37;;;;;;;3.58;1.60;;;11.70;99.90;;;;;;5019736;28;20057;-87
2023/10/22 04:36:04;;;;;;;2.50;1.90;;;11.70;99.90;;;;;;5029227;28;20060;-86
2023/10/22 04:38:31;;;;;;;2.03;1.60;;;11.70;99.90;;;;;;5028837;28;20037;-87
2023/10/22 04:40:57;;;;;;;2.25;1.70;;;11.70;99.90;;;;;;5030647;28;20048;-87
2023/10/22 04:43:24;;;;;;;3.30;1.85;;;11.70;99.90;;;;;;5023830;28;20029;-87
2023/10/22 04:45:50;;;;;;;3.85;1.90;;;11.80;99.90;;;;;;5029393;28;20052;-87
2023/10/22 04:48:16;;;;;;;2.17;1.70;;;11.70;99.90;;;;;;5007525;28;20030;-86
2023/10/22 04:50:44;;;;;;;1.77;1.48;;;11.80;99.90;;;;;;5030110;28;20380;-87
2023/10/22 04:53:10;;;;;;;2.35;1.90;;;11.80;99.90;;;;;;5019308;28;20076;-87
2023/10/22 04:55:36;;;;;;;2.40;1.90;;;11.80;99.90;;;;;;5011203;28;20503;-85
2023/10/22 04:58:02;;;;;;;1.85;1.75;;;11.80;99.90;;;;;;5029689;28;20044;-86
2023/10/22 05:00:28;;;;;;;4.40;2.25;;;11.80;99.90;;;;;;5028716;28;20045;-87
2023/10/22 05:02:54;;;;;;;2.08;1.70;;;11.80;99.90;;;;;;5025227;28;20060;-87
2023/10/22 05:05:23;;;;;;;2.08;1.90;;;12.80;99.90;;;;;;5023603;28;20049;-86
2023/10/22 05:07:49;;;;;;;2.45;1.50;;;11.90;99.90;;;;;;5016747;28;20103;-86
2023/10/22 05:10:16;;;;;;;1.95;1.40;;;11.80;99.90;;;;;;5028782;28;20491;-85
2023/10/22 05:12:41;;;;;;;1.67;1.58;;;11.90;99.90;;;;;;5028269;28;20080;-85
2023/10/22 05:15:08;;;;;;;3.20;1.90;;;11.90;99.90;;;;;;5028546;28;20077;-84
2023/10/22 05:17:34;;;;;;;4.75;1.80;;;11.90;99.90;;;;;;5028166;28;20049;-86
2023/10/22 05:20:00;;;;;;;1.67;1.58;;;11.90;99.90;;;;;;5031786;28;20064;-86
2023/10/22 05:22:25;;;;;;;2.00;1.50;;;11.90;99.90;;;;;;5048733;28;20053;-85
2023/10/22 05:24:51;;;;;;;2.20;1.80;;;12.00;99.90;;;;;;5029658;28;20132;-85
2023/10/22 05:27:17;;;;;;;1.80;1.70;;;11.90;99.90;;;;;;5015395;28;20052;-93
2023/10/22 05:29:45;;;;;;;1.60;1.50;;;11.90;99.90;;;;;;5026367;28;20266;-85
2023/10/22 05:32:13;;;;;;;1.63;1.45;;;12.00;99.90;;;;;;5030472;28;20494;-84
2023/10/22 05:34:39;;;;;;;2.60;1.50;;;12.00;99.90;;;;;;5030728;28;20041;-85
2023/10/22 05:37:04;;;;;;;1.65;1.50;;;12.00;99.90;;;;;;5015063;28;20056;-84
2023/10/22 05:39:30;;;;;;;1.88;1.30;;;12.00;99.90;;;;;;5049333;28;20410;-86
2023/10/22 05:41:56;;;;;;;1.10;1.00;;;12.00;99.90;;;;;;5029825;28;20061;-85
2023/10/22 05:44:24;;;;;;;1.48;1.02;;;12.00;99.90;;;;;;5031329;28;20049;-86
2023/10/22 05:46:49;;;;;;;0.85;0.80;;;12.00;99.90;;;;;;5031029;28;20041;-84
2023/10/22 05:49:17;;;;;;;1.00;0.90;;;12.40;99.90;;;;;;5031527;28;20182;-82
2023/10/22 05:51:42;;;;;;;0.80;0.80;;;12.10;99.90;;;;;;5047648;28;20140;-85
2023/10/22 05:54:08;;;;;;;2.33;0.80;;;12.20;99.90;;;;;;5030493;28;20116;-85
2023/10/22 05:56:33;;;;;;;1.35;1.00;;;12.20;99.90;;;;;;5031294;28;20102;-83
2023/10/22 05:59:01;;;;;;;1.45;1.20;;;12.20;99.90;;;;;;5048362;28;20049;-86
2023/10/22 06:01:26;;;;;;;4.05;1.05;;;12.20;99.90;;;;;;5026490;28;20052;-84
2023/10/22 06:03:52;;;;;;;1.45;0.80;;;12.20;99.90;;;;;;5028854;28;21014;-84
2023/10/22 06:06:20;;;;;;;1.17;0.82;;;12.20;99.90;;;;;;5014810;28;20041;-84
2023/10/22 06:08:47;;;;;;;1.83;0.73;;;12.20;99.90;;;;;;5023533;28;20509;-83
2023/10/22 06:11:14;;;;;;;1.38;0.93;;;12.10;99.90;;;;;;5045428;28;20187;-86
2023/10/22 06:13:40;;;;;;;0.88;0.73;;;12.10;99.90;;;;;;5040635;28;20402;-84
2023/10/22 06:16:07;;;;;;;1.00;0.90;;;12.10;99.90;;;;;;5034728;28;20048;-84
2023/10/22 06:18:33;;;;;;;2.60;1.42;;;12.00;99.90;;;;;;5068722;28;20048;-83
2023/10/22 06:20:58;;;;;;;3.45;1.30;;;11.90;99.90;;;;;;5068894;28;20158;-82
2023/10/22 06:23:24;;;;;;;3.00;1.65;;;12.00;99.90;;;;;;5051947;28;20452;-86
2023/10/22 06:25:49;;;;;;;2.95;1.70;;;11.80;99.90;;;;;;5070717;28;20052;-86
2023/10/22 06:28:15;;;;;;;5.13;2.20;;;11.70;99.90;;;;;;5059309;28;20044;-85
2023/10/22 06:30:41;;;;;;;2.67;2.00;;;11.60;99.90;;;;;;5028722;28;20053;-83
2023/10/22 06:33:06;;;;;;;6.68;2.17;;;11.60;99.90;;;;;;5048725;28;20048;-86
2023/10/22 06:35:32;;;;;;;2.95;2.30;;;11.50;99.90;;;;;;5047736;28;20383;-84
2023/10/22 06:37:58;;;;;;;4.60;2.80;;;11.50;99.90;;;;;;5029961;28;20053;-84
2023/10/22 06:40:24;;;;;;;4.40;3.03;;;11.40;99.90;;;;;;5048612;28;20080;-83
2023/10/22 06:42:50;;;;;;;8.88;3.33;;;11.40;99.90;;;;;;5046506;28;20041;-84
2023/10/22 06:45:17;;;;;;;5.00;3.60;;;11.40;99.90;;;;;;5048386;28;20497;-84
2023/10/22 06:47:43;;;;;;;7.35;3.10;;;12.30;99.90;;;;;;5048485;28;20083;-83
2023/10/22 06:50:13;;;;;;;5.53;3.70;;;11.40;99.90;;;;;;5047906;28;20049;-85
2023/10/22 06:52:41;;;;;;;7.68;3.72;;;11.40;99.90;;;;;;5047591;28;20561;-84
2023/10/22 06:55:07;;;;;;;9.73;4.50;;;11.40;99.90;;;;;;5029734;28;20495;-83
2023/10/22 06:57:33;;;;;;;6.35;3.95;;;11.40;99.90;;;;;;5012184;28;20544;-84
2023/10/22 06:59:58;;;;;;;6.80;3.58;;;11.30;99.90;;;;;;5029596;28;20045;-84
2023/10/22 07:02:25;;;;;;;7.07;4.18;;;11.30;99.90;;;;;;5048191;28;20041;-85
2023/10/22 07:04:54;;;;;;;5.30;3.78;;;11.30;99.90;;;;;;5028897;28;20045;-85
2023/10/22 07:07:21;;;;;;;9.07;4.55;;;11.40;99.90;;;;;;5012511;28;20489;-85
2023/10/22 07:09:47;;;;;;;6.57;4.35;;;11.40;99.90;;;;;;5047924;28;20110;-85
2023/10/22 07:12:15;;;;;;;8.40;4.30;;;11.40;99.90;;;;;;5030400;28;20044;-86
2023/10/22 07:14:41;;;;;;;5.97;4.50;;;11.50;99.90;;;;;;5029072;28;20186;-85
2023/10/22 07:17:06;;;;;;;6.18;4.47;;;11.50;99.90;;;;;;5048113;28;20057;-85
2023/10/22 07:19:32;;;;;;;8.05;4.03;;;11.80;99.90;;;;;;5047587;28;20052;-85
2023/10/22 07:21:57;;;;;;;5.57;4.07;;;11.40;99.90;;;;;;5029077;28;20089;-86
2023/10/22 07:24:23;;;;;;;7.90;4.38;;;11.50;99.90;;;;;;5029295;28;20048;-86
2023/10/22 07:26:49;;;;;;;5.75;3.45;;;11.50;99.90;;;;;;5029552;28;20041;-85
2023/10/22 07:29:15;;;;;;;5.60;3.55;;;11.50;99.90;;;;;;5029241;28;20045;-86
2023/10/22 07:31:43;;;;;;;6.55;3.47;;;11.50;99.90;;;;;;5029155;28;20086;-85
2023/10/22 07:34:09;;;;;;;8.88;3.28;;;11.50;99.90;;;;;;5030019;28;20049;-87
2023/10/22 07:36:35;;;;;;;4.82;3.13;;;11.50;99.90;;;;;;5013744;28;20056;-86
2023/10/22 07:39:01;;;;;;;5.43;3.00;;;11.40;99.90;;;;;;5051728;28;20049;-85
2023/10/22 07:41:27;;;;;;;6.40;2.80;;;11.40;99.90;;;;;;5036422;28;20041;-86
2023/10/22 07:43:53;;;;;;;3.45;2.95;;;11.40;99.90;;;;;;5036017;28;20048;-86
2023/10/22 07:46:19;;;;;;;6.03;3.20;;;11.40;99.90;;;;;;5035354;28;20072;-86
2023/10/22 07:48:45;;;;;;;7.68;3.22;;;11.50;99.90;;;;;;5054292;28;20122;-86
2023/10/22 07:51:15;;;;;;;5.43;2.92;;;11.50;99.90;;;;;;5052380;28;20178;-85
2023/10/22 07:53:42;;;;;;;5.15;2.78;;;11.50;99.90;;;;;;5033771;28;20048;-85
2023/10/22 07:56:09;;;;;;;3.13;2.60;;;11.60;99.90;;;;;;5034132;28;20076;-85
2023/10/22 07:58:36;;;;;;;5.32;2.70;;;12.10;99.90;;;;;;5033254;28;20045;-84
2023/10/22 08:01:03;;;;;;;5.70;2.78;;;11.60;99.90;;;;;;5051539;28;20049;-85
2023/10/22 08:03:29;;;;;;;7.15;2.95;;;11.60;99.90;;;;;;5033078;28;20043;-84
2023/10/22 08:05:55;;;;;;;5.63;2.80;;;11.70;99.90;;;;;;5051120;28;20516;-86
2023/10/22 08:08:21;;;;;;;6.45;2.90;;;11.70;99.90;;;;;;5050829;28;20166;-86
2023/10/22 08:10:49;;;;;;;7.50;2.70;;;11.80;99.90;;;;;;5016453;28;20048;-85
2023/10/22 08:13:14;;;;;;;4.75;2.90;;;11.80;99.90;;;;;;5051072;28;20041;-84
2023/10/22 08:15:40;;;;;;;3.65;2.85;;;11.80;99.90;;;;;;5051306;28;20414;-85
2023/10/22 08:18:06;;;;;;;4.75;2.75;;;11.90;99.90;;;;;;5051527;28;20080;-86
2023/10/22 08:20:35;;;;;;;6.60;2.80;;;11.90;99.90;;;;;;5051084;28;20545;-87
2023/10/22 08:23:01;;;;;;;5.43;3.00;;;11.90;99.90;;;;;;5032750;28;20057;-87
2023/10/22 08:25:27;;;;;;;6.53;2.90;;;12.00;99.90;;;;;;5033085;28;20036;-85
2023/10/22 08:27:53;;;;;;;6.43;2.97;;;12.00;99.90;;;;;;5051434;28;20114;-87
2023/10/22 08:30:19;;;;;;;4.68;2.80;;;12.10;99.90;;;;;;5033084;28;20533;-86
2023/10/22 08:32:46;;;;;;;4.85;2.63;;;12.10;99.90;;;;;;5033099;28;20411;-87
2023/10/22 08:35:12;;;;;;;5.63;2.67;;;12.20;99.90;;;;;;5033480;28;20060;-89
2023/10/22 08:37:38;;;;;;;5.28;2.90;;;12.20;99.90;;;;;;5031651;28;20037;-84
2023/10/22 08:40:07;;;;;;;5.85;3.38;;;12.20;99.90;;;;;;5050246;28;20836;-85
2023/10/22 08:42:33;;;;;;;6.72;3.30;;;12.30;99.90;;;;;;5050622;28;20056;-84
2023/10/22 08:44:58;;;;;;;5.65;2.60;;;12.40;99.90;;;;;;5049980;28;20037;-85
2023/10/22 08:47:25;;;;;;;5.57;2.50;;;12.40;99.90;;;;;;5032039;28;20044;-82
2023/10/22 08:49:52;;;;;;;4.50;3.10;;;12.70;99.90;;;;;;5049344;28;20175;-84
2023/10/22 08:52:18;;;;;;;4.10;3.05;;;12.70;99.90;;;;;;5029883;28;20068;-83
2023/10/22 08:54:46;;;;;;;8.13;2.60;;;12.90;99.90;;;;;;5047085;28;20126;-83
2023/10/22 08:57:12;;;;;;;3.25;2.58;;;12.90;99.90;;;;;;5014610;28;20064;-83
2023/10/22 08:59:38;;;;;;;5.30;2.50;;;12.90;99.90;;;;;;5049391;28;20126;-84
2023/10/22 09:02:10;;;;;;;6.07;2.78;;;13.00;99.90;;;;;;5031268;28;20052;-83
2023/10/22 09:04:36;;;;;;;3.65;2.15;;;13.00;99.90;;;;;;5050129;28;20041;-84
2023/10/22 09:07:01;;;;;;;4.38;2.10;;;13.00;99.90;;;;;;5032017;28;20053;-83
2023/10/22 09:09:38;;;;;;;3.03;2.08;;;13.00;99.90;;;;;;5032116;28;20041;-85
2023/10/22 09:12:08;;;;;;;3.28;2.10;;;13.00;99.90;;;;;;5030465;28;20044;-83
2023/10/22 09:14:34;;;;;;;4.18;2.00;;;13.00;99.90;;;;;;5049613;28;20053;-84
2023/10/22 09:17:16;;;;;;;5.00;2.28;;;12.90;99.90;;;;;;5049621;28;20197;-83
2023/10/22 09:19:46;;;;;;;3.92;1.98;;;12.90;99.90;;;;;;5049735;28;20049;-83
2023/10/22 09:22:22;;;;;;;6.28;2.72;;;12.90;99.90;;;;;;5048182;28;20052;-85
2023/10/22 09:24:50;;;;;;;4.20;2.40;;;12.90;99.90;;;;;;5049444;28;20073;-83
2023/10/22 09:27:27;;;;;;;3.70;2.22;;;12.90;99.90;;;;;;5049390;28;20037;-84
2023/10/22 09:29:53;;;;;;;7.57;2.30;;;13.00;99.90;;;;;;5049624;28;20059;-83
2023/10/22 09:32:20;;;;;;;4.43;2.33;;;13.10;99.90;;;;;;5048724;28;20060;-84
2023/10/22 09:34:46;;;;;;;2.95;2.05;;;13.20;99.90;;;;;;5015780;28;20049;-85
2023/10/22 09:37:12;;;;;;;5.68;2.42;;;13.70;99.90;;;;;;5031635;28;20225;-87
2023/10/22 09:39:42;;;;;;;4.75;1.90;;;13.30;99.90;;;;;;5031816;28;20048;-87
2023/10/22 09:42:09;;;;;;;5.50;2.20;;;14.10;99.90;;;;;;5031579;28;20131;-86
2023/10/22 09:44:37;;;;;;;3.55;1.90;;;13.40;99.90;;;;;;5048489;28;20114;-88
2023/10/22 09:47:06;;;;;;;4.30;1.70;;;13.50;99.90;;;;;;5031688;28;20045;-87
2023/10/22 09:49:38;;;;;;;1.65;1.30;;;13.50;99.90;;;;;;5031844;28;20049;-88
2023/10/22 09:52:06;;;;;;;4.28;1.50;;;13.60;99.90;;;;;;5031085;28;20048;-87
2023/10/22 09:54:35;;;;;;;3.53;1.52;;;14.00;99.90;;;;;;5031391;28;20091;-84
2023/10/22 09:57:15;;;;;;;3.30;1.67;;;13.80;99.90;;;;;;5015290;28;20060;-87
2023/10/22 09:59:42;;;;;;;2.97;1.55;;;13.80;99.90;;;;;;5030443;28;20625;-82
2023/10/22 10:02:13;;;;;;;1.70;1.20;;;13.90;99.90;;;;;;5047286;28;20044;-84
2023/10/22 10:04:42;;;;;;;3.00;1.30;;;13.90;99.90;;;;;;5047643;28;20110;-90
2023/10/22 10:07:08;;;;;;;2.75;1.33;;;14.00;99.90;;;;;;5030875;28;20808;-84
2023/10/22 10:09:35;;;;;;;4.18;1.52;;;13.90;99.90;;;;;;5031109;28;20098;-83
2023/10/22 10:12:05;;;;;;;2.55;1.23;;;13.90;99.90;;;;;;5047515;28;20098;-85
2023/10/22 10:14:36;;;;;;;3.03;1.63;;;13.90;99.90;;;;;;5030907;28;20091;-86
2023/10/22 10:17:03;;;;;;;3.67;1.48;;;13.70;99.90;;;;;;5030859;28;20049;-85
2023/10/22 10:19:29;;;;;;;3.97;1.33;;;14.00;99.90;;;;;;5029967;28;20407;-85
2023/10/22 10:21:55;;;;;;;1.60;1.20;;;13.60;99.90;;;;;;5029496;28;20068;-83
2023/10/22 10:24:29;;;;;;;2.20;1.23;;;13.50;99.90;;;;;;5030966;28;20505;-85
2023/10/22 10:26:55;;;;;;;2.78;1.30;;;13.40;99.90;;;;;;5030373;28;20072;-85
2023/10/22 10:29:25;;;;;;;2.45;1.10;;;13.30;99.90;;;;;;5030971;28;20596;-85
2023/10/22 10:31:52;;;;;;;3.70;1.17;;;13.20;99.90;;;;;;5030625;28;20091;-85
2023/10/22 10:34:25;;;;;;;3.15;1.25;;;13.20;99.90;;;;;;5029829;28;20048;-84
2023/10/22 10:36:51;;;;;;;;;;;13.20;99.90;;;;;;5029648;28;20084;-84
2023/10/22 10:39:40;;;;;;;3.88;1.23;;;13.00;99.90;;;;;;5048013;28;19925;-84
2023/10/22 10:42:07;;;;;;;4.25;1.63;;;13.10;99.90;;;;;;5029138;28;20045;-83
2023/10/22 10:44:58;;;;;;;2.03;1.23;;;13.40;99.90;;;;;;5025941;28;20083;-87
2023/10/22 10:47:41;;;;;;;4.15;1.70;;;12.90;99.90;;;;;;5047706;28;20494;-83
2023/10/22 10:50:10;;;;;;;4.95;3.05;;;12.90;99.90;;;;;;5029655;28;20045;-84
2023/10/22 10:52:41;;;;;;;3.13;1.80;;;13.20;99.90;;;;;;5046325;28;20106;-84
2023/10/22 10:55:27;;;;;;;3.88;2.03;;;13.10;99.90;;;;;;5030708;28;20045;-86
2023/10/22 10:57:55;;;;;;;2.72;2.22;;;13.20;99.90;;;;;;5046735;28;20173;-83
2023/10/22 11:00:20;;;;;;;4.55;2.03;;;13.30;99.90;;;;;;5046551;28;20045;-83
2023/10/22 11:02:51;;;;;;;2.60;2.10;;;13.30;99.90;;;;;;5029635;28;20067;-84
2023/10/22 11:05:28;;;;;;;4.90;2.20;;;13.20;99.90;;;;;;5030211;28;20040;-83
2023/10/22 11:07:54;;;;;;;5.07;2.00;;;13.20;99.90;;;;;;5047477;28;20499;-83
2023/10/22 11:10:19;;;;;;;5.60;2.70;;;13.20;99.90;;;;;;5048318;28;20045;-83
2023/10/22 11:12:45;;;;;;;7.47;2.35;;;13.20;99.90;;;;;;5029713;28;20043;-82
2023/10/22 11:15:12;;;;;;;4.72;2.63;;;13.20;99.90;;;;;;5047082;28;20406;-83
2023/10/22 11:17:39;;;;;;;6.20;2.35;;;13.20;99.90;;;;;;5044712;28;20186;-83
2023/10/22 11:20:06;;;;;;;5.00;2.50;;;13.20;99.90;;;;;;5025456;28;20057;-83
2023/10/22 11:22:32;;;;;;;4.30;2.40;;;13.10;99.90;;;;;;5019994;28;20416;-83
2023/10/22 11:25:02;;;;;;;3.97;2.40;;;13.10;99.90;;;;;;5026150;28;20120;-83
2023/10/22 11:27:30;;;;;;;3.47;2.20;;;13.10;99.90;;;;;;5021430;28;20124;-83
2023/10/22 11:29:55;;;;;;;4.25;2.40;;;13.10;99.90;;;;;;5025850;28;20518;-84
2023/10/22 11:32:21;;;;;;;5.55;2.38;;;13.10;99.90;;;;;;5026989;28;20041;-82
2023/10/22 11:34:56;;;;;;;5.60;2.40;;;13.10;99.90;;;;;;5009529;28;20159;-83
2023/10/22 11:37:28;;;;;;;3.05;1.90;;;13.20;99.90;;;;;;5021032;28;20130;-83
2023/10/22 11:39:54;;;;;;;3.85;2.10;;;13.40;99.90;;;;;;5008666;28;20049;-83
2023/10/22 11:42:19;;;;;;;2.70;1.77;;;13.50;99.90;;;;;;5027656;28;20053;-83
2023/10/22 11:44:46;;;;;;;5.53;2.70;;;13.60;99.90;;;;;;5026120;28;20037;-83
2023/10/22 11:47:33;;;;;;;3.78;1.73;;;13.70;99.90;;;;;;5009056;28;20042;-84
2023/10/22 11:49:59;;;;;;;3.55;2.13;;;13.90;99.90;;;;;;5023604;28;20403;-84
2023/10/22 11:52:34;;;;;;;5.57;1.58;;;13.90;99.90;;;;;;5019086;28;20057;-84
2023/10/22 11:55:09;;;;;;;3.80;1.77;;;13.80;99.90;;;;;;5008778;28;20049;-83
2023/10/22 11:57:39;;;;;;;3.13;1.90;;;13.80;99.90;;;;;;5027109;28;20507;-83
2023/10/22 12:00:06;;;;;;;4.30;1.60;;;13.80;99.90;;;;;;5026922;28;20041;-83
2023/10/22 12:02:32;;;;;;;4.07;1.38;;;13.90;99.90;;;;;;5025780;28;20085;-85
2023/10/22 12:04:57;;;;;;;1.42;1.13;;;14.00;99.90;;;;;;5009677;28;20077;-84
2023/10/22 12:07:23;;;;;;;3.47;1.40;;;14.00;99.90;;;;;;5027001;28;20042;-85
2023/10/22 12:09:49;;;;;;;1.42;1.10;;;14.00;99.90;;;;;;5025127;28;20076;-83
2023/10/22 12:12:15;;;;;;;1.55;1.00;;;14.00;99.90;;;;;;5026938;28;20488;-84
2023/10/22 12:14:42;;;;;;;1.63;0.82;;;14.00;99.90;;;;;;5025382;28;20128;-84
2023/10/22 12:17:08;;;;;;;2.33;0.88;;;14.10;99.90;;;;;;5024494;28;20092;-83
2023/10/22 12:19:34;;;;;;;2.75;1.20;;;13.90;99.90;;;;;;5027045;28;20045;-82
2023/10/22 12:21:59;;;;;;;2.30;1.10;;;13.90;99.90;;;;;;5045933;28;20147;-83
2023/10/22 12:24:26;;;;;;;4.13;1.45;;;13.70;99.90;;;;;;5047134;28;20132;-83
2023/10/22 12:26:51;;;;;;;2.65;1.27;;;14.20;99.90;;;;;;5031124;28;20087;-83
2023/10/22 12:29:17;;;;;;;4.10;1.35;;;14.10;99.90;;;;;;5048951;28;20044;-85
2023/10/22 12:31:43;;;;;;;1.70;1.30;;;14.20;99.90;;;;;;5016029;28;20060;-86
2023/10/22 12:34:08;;;;;;;5.03;1.70;;;14.30;99.90;;;;;;5032465;28;20107;-85
2023/10/22 12:36:34;;;;;;;2.85;1.42;;;14.30;99.90;;;;;;5015542;28;20129;-86
2023/10/22 12:39:00;;;;;;;2.95;1.52;;;14.70;99.90;;;;;;5032436;28;20049;-85
2023/10/22 12:41:26;;;;;;;2.15;1.02;;;14.50;99.90;;;;;;5033135;28;20088;-86
2023/10/22 12:43:52;;;;;;;6.05;1.30;;;14.50;99.90;;;;;;5031565;28;20048;-86
2023/10/22 12:46:18;;;;;;;2.03;1.35;;;14.50;99.90;;;;;;5032434;28;20041;-84